createdAt,value
2022-08-17T00:02:26.600Z,16.70
2022-08-17T00:08:37.415Z,15.93
2022-08-17T00:11:17.383Z,15.48
2022-08-17T00:17:25.400Z,17.20
2022-08-17T00:19:52.142Z,17.92
2022-08-17T00:26:07.134Z,18.13
2022-08-17T00:33:12.594Z,18.00
2022-08-17T00:35:05.712Z,16.60
2022-08-17T00:37:32.528Z,17.33
2022-08-17T00:39:59.394Z,15.82
2022-08-17T00:42:30.450Z,16.85
2022-08-17T00:44:58.134Z,17.23
2022-08-17T00:47:25.302Z,16.55
2022-08-17T00:49:52.018Z,17.02
2022-08-17T00:52:22.929Z,17.80
2022-08-17T00:54:53.941Z,17.92
2022-08-17T00:57:29.854Z,16.17
2022-08-17T01:00:02.477Z,16.40
2022-08-17T01:02:41.454Z,15.48
2022-08-17T01:05:25.433Z,15.65
2022-08-17T01:07:53.563Z,14.90
2022-08-17T01:11:00.533Z,16.40
2022-08-17T01:13:14.642Z,16.25
2022-08-17T01:15:48.297Z,15.48
2022-08-17T01:18:16.543Z,14.70
2022-08-17T01:20:51.736Z,15.10
2022-08-17T01:23:21.322Z,15.68
2022-08-17T01:25:57.817Z,14.27
2022-08-17T01:28:40.701Z,14.65
2022-08-17T01:31:15.075Z,14.07
2022-08-17T01:33:42.148Z,14.35
2022-08-17T01:36:09.516Z,16.10
2022-08-17T01:38:37.811Z,14.32
2022-08-17T01:41:13.445Z,14.15
2022-08-17T01:43:55.148Z,13.30
2022-08-17T01:46:27.099Z,15.60
2022-08-17T01:48:56.060Z,15.80
2022-08-17T01:51:24.880Z,15.50
2022-08-17T01:53:56.110Z,17.23
2022-08-17T01:56:25.726Z,17.27
2022-08-17T01:58:53.689Z,15.60
2022-08-17T02:01:23.178Z,17.20
2022-08-17T02:03:59.308Z,18.42
2022-08-17T02:06:30.035Z,17.73
2022-08-17T02:09:02.599Z,18.40
2022-08-17T02:11:32.310Z,17.60
2022-08-17T02:14:02.462Z,17.75
2022-08-17T02:16:37.517Z,17.55
2022-08-17T02:19:08.046Z,18.13
2022-08-17T02:21:36.663Z,19.15
2022-08-17T02:24:05.735Z,19.53
2022-08-17T02:26:32.537Z,19.42
2022-08-17T02:28:59.576Z,19.88
2022-08-17T02:31:26.571Z,20.25
2022-08-17T02:33:56.685Z,20.95
2022-08-17T02:36:35.242Z,21.92
2022-08-17T02:39:07.295Z,20.42
2022-08-17T02:41:34.709Z,20.92
2022-08-17T02:44:01.538Z,18.75
2022-08-17T02:46:28.672Z,18.30
2022-08-17T02:48:55.728Z,17.20
2022-08-17T02:51:22.596Z,16.08
2022-08-17T02:53:50.069Z,15.27
2022-08-17T02:56:17.146Z,15.45
2022-08-17T02:58:44.213Z,15.65
2022-08-17T03:01:11.030Z,13.05
2022-08-17T03:03:38.431Z,13.60
2022-08-17T03:06:07.551Z,12.68
2022-08-17T03:08:35.271Z,12.57
2022-08-17T03:11:01.985Z,12.98
2022-08-17T03:13:30.677Z,12.35
2022-08-17T03:15:57.905Z,12.60
2022-08-17T03:18:26.380Z,14.40
2022-08-17T03:20:56.265Z,15.93
2022-08-17T03:23:25.291Z,16.08
2022-08-17T03:28:21.933Z,16.80
2022-08-17T03:30:49.198Z,16.60
2022-08-17T03:33:16.852Z,17.67
2022-08-17T03:35:44.450Z,18.98
2022-08-17T03:38:12.814Z,19.90
2022-08-17T03:40:57.192Z,21.42
2022-08-17T03:43:29.653Z,22.17
2022-08-17T03:46:28.659Z,23.00
2022-08-17T03:49:19.419Z,22.55
2022-08-17T03:52:04.836Z,24.50
2022-08-17T03:54:50.409Z,26.02
2022-08-17T03:57:17.485Z,25.55
2022-08-17T03:59:45.095Z,25.70
2022-08-17T04:02:21.335Z,24.42
2022-08-17T04:04:51.322Z,25.92
2022-08-17T04:07:20.790Z,26.00
2022-08-17T04:12:17.097Z,27.65
2022-08-17T04:14:52.626Z,28.77
2022-08-17T04:17:23.095Z,28.95
2022-08-17T04:19:49.851Z,30.10
2022-08-17T04:22:30.954Z,28.45
2022-08-17T04:25:16.001Z,29.25
2022-08-17T04:27:42.941Z,28.98
2022-08-17T04:30:10.484Z,29.52
2022-08-17T04:33:05.939Z,27.90
2022-08-17T04:35:50.034Z,29.17
2022-08-17T04:38:20.818Z,28.83
2022-08-17T04:41:06.723Z,27.35
2022-08-17T04:43:34.912Z,28.73
2022-08-17T04:46:05.009Z,28.40
2022-08-17T04:48:37.440Z,28.55
2022-08-17T04:51:11.711Z,28.02
2022-08-17T04:53:41.705Z,28.58
2022-08-17T04:56:11.620Z,29.83
2022-08-17T04:58:44.735Z,28.42
2022-08-17T05:01:11.727Z,29.25
2022-08-17T05:03:38.660Z,30.23
2022-08-17T05:06:05.993Z,28.88
2022-08-17T05:08:32.996Z,29.13
2022-08-17T05:11:00.344Z,28.83
2022-08-17T05:13:31.772Z,28.98
2022-08-17T05:16:01.622Z,30.92
2022-08-17T05:18:29.877Z,27.10
2022-08-17T05:20:57.604Z,28.45
2022-08-17T05:23:26.826Z,30.17
2022-08-17T05:26:02.785Z,34.00
2022-08-17T05:28:29.822Z,33.10
2022-08-17T05:30:59.772Z,32.17
2022-08-17T05:33:29.427Z,33.20
2022-08-17T05:35:58.168Z,33.22
2022-08-17T05:38:26.976Z,31.42
2022-08-17T05:40:54.453Z,31.55
2022-08-17T05:43:23.375Z,29.80
2022-08-17T05:45:59.324Z,30.77
2022-08-17T05:48:35.391Z,29.52
2022-08-17T05:51:22.833Z,30.30
2022-08-17T05:54:11.437Z,31.90
2022-08-17T05:57:18.077Z,29.38
2022-08-17T06:00:07.125Z,29.33
2022-08-17T06:03:11.981Z,30.70
2022-08-17T06:06:11.571Z,33.58
2022-08-17T06:08:55.314Z,32.10
2022-08-17T06:11:53.856Z,31.83
2022-08-17T06:14:30.222Z,33.55
2022-08-17T06:17:08.836Z,31.83
2022-08-17T06:20:08.120Z,32.30
2022-08-17T06:22:42.090Z,33.65
2022-08-17T06:25:17.934Z,34.60
2022-08-17T06:27:53.606Z,35.28
2022-08-17T06:30:22.308Z,34.05
2022-08-17T06:32:50.962Z,35.55
2022-08-17T06:35:41.011Z,35.60
2022-08-17T06:38:37.414Z,35.40
2022-08-17T06:41:22.375Z,37.30
2022-08-17T06:44:47.546Z,36.63
2022-08-17T06:47:11.068Z,35.25
2022-08-17T06:50:24.404Z,39.22
2022-08-17T06:52:51.809Z,37.13
2022-08-17T06:55:44.057Z,38.20
2022-08-17T06:58:16.590Z,41.22
2022-08-17T07:00:46.996Z,40.00
2022-08-17T07:03:28.073Z,39.70
2022-08-17T07:06:05.449Z,39.00
2022-08-17T07:08:35.553Z,39.47
2022-08-17T07:11:12.950Z,40.70
2022-08-17T07:13:51.101Z,43.20
2022-08-17T07:16:30.666Z,41.28
2022-08-17T07:18:59.418Z,44.53
2022-08-17T07:21:57.173Z,43.97
2022-08-17T07:24:41.438Z,42.25
2022-08-17T07:27:16.405Z,42.47
2022-08-17T07:30:10.651Z,45.00
2022-08-17T07:32:59.973Z,42.03
2022-08-17T07:35:31.241Z,45.10
2022-08-17T07:38:24.245Z,43.55
2022-08-17T07:40:57.563Z,43.88
2022-08-17T07:43:29.349Z,46.05
2022-08-17T07:46:24.077Z,46.00
2022-08-17T07:48:56.755Z,45.03
2022-08-17T07:51:36.102Z,45.53
2022-08-17T07:54:31.460Z,41.88
2022-08-17T07:57:12.804Z,44.78
2022-08-17T08:00:01.485Z,45.22
2022-08-17T08:02:41.538Z,40.08
2022-08-17T08:05:14.923Z,41.72
2022-08-17T08:08:04.382Z,41.83
2022-08-17T08:10:42.794Z,42.55
2022-08-17T08:13:24.989Z,44.88
2022-08-17T08:15:54.894Z,47.95
2022-08-17T08:18:54.582Z,44.53
2022-08-17T08:21:31.134Z,46.53
2022-08-17T08:24:06.933Z,45.40
2022-08-17T08:26:58.635Z,47.92
2022-08-17T08:30:09.351Z,47.70
2022-08-17T08:32:57.257Z,42.17
2022-08-17T08:35:54.713Z,45.25
2022-08-17T08:38:24.723Z,43.92
2022-08-17T08:41:04.063Z,46.10
2022-08-17T08:44:05.962Z,43.25
2022-08-17T08:47:10.257Z,43.30
2022-08-17T08:50:08.155Z,45.53
2022-08-17T08:53:34.236Z,44.85
2022-08-17T08:56:10.843Z,48.28
2022-08-17T08:59:03.949Z,45.38
2022-08-17T09:02:00.038Z,45.00
2022-08-17T09:05:13.486Z,41.72
2022-08-17T09:08:29.478Z,46.85
2022-08-17T09:11:10.941Z,42.30
2022-08-17T09:14:06.935Z,47.97
2022-08-17T09:17:21.846Z,41.53
2022-08-17T09:19:59.765Z,36.40
2022-08-17T09:22:35.602Z,35.35
2022-08-17T09:25:12.211Z,35.50
2022-08-17T09:28:00.625Z,35.25
2022-08-17T09:30:36.262Z,31.00
2022-08-17T09:33:08.197Z,30.35
2022-08-17T09:36:10.223Z,31.50
2022-08-17T09:38:48.869Z,29.23
2022-08-17T09:41:24.384Z,29.20
2022-08-17T09:44:22.632Z,30.52
2022-08-17T09:47:05.543Z,30.30
2022-08-17T09:49:45.391Z,28.10
2022-08-17T09:52:19.702Z,30.90
2022-08-17T09:54:48.310Z,30.35
2022-08-17T09:57:40.097Z,31.63
2022-08-17T10:00:11.271Z,32.45
2022-08-17T10:03:17.910Z,30.48
2022-08-17T10:05:56.807Z,23.98
2022-08-17T10:08:58.352Z,26.60
2022-08-17T10:12:00.805Z,20.20
2022-08-17T10:15:08.170Z,18.05
2022-08-17T10:17:57.768Z,17.70
2022-08-17T10:21:21.114Z,15.35
2022-08-17T10:24:13.227Z,18.10
2022-08-17T10:26:56.925Z,16.75
2022-08-17T10:29:46.275Z,16.17
2022-08-17T10:32:34.712Z,15.55
2022-08-17T10:35:07.729Z,16.90
2022-08-17T10:37:53.581Z,17.50
2022-08-17T10:40:51.502Z,14.70
2022-08-17T10:43:32.886Z,14.95
2022-08-17T10:46:30.340Z,14.77
2022-08-17T10:49:19.094Z,13.18
2022-08-17T10:51:53.442Z,16.52
2022-08-17T10:54:39.773Z,10.38
2022-08-17T10:57:34.194Z,10.13
2022-08-17T11:00:04.074Z,11.45
2022-08-17T11:02:52.488Z,11.55
2022-08-17T11:05:41.530Z,10.63
2022-08-17T11:08:38.346Z,8.65
2022-08-17T11:11:45.370Z,8.52
2022-08-17T11:14:31.194Z,7.57
2022-08-17T11:17:07.204Z,7.55
2022-08-17T11:19:50.690Z,7.82
2022-08-17T11:22:20.174Z,7.97
2022-08-17T11:24:51.295Z,7.57
2022-08-17T11:27:34.030Z,7.18
2022-08-17T11:30:04.747Z,7.00
2022-08-17T11:32:34.472Z,6.65
2022-08-17T11:35:30.275Z,9.35
2022-08-17T11:38:15.037Z,6.15
2022-08-17T11:41:07.345Z,6.38
2022-08-17T11:43:56.270Z,6.50
2022-08-17T11:47:01.537Z,6.93
2022-08-17T11:50:15.447Z,6.68
2022-08-17T11:52:48.735Z,7.97
2022-08-17T11:55:44.347Z,7.05
2022-08-17T11:58:23.741Z,7.53
2022-08-17T12:00:56.626Z,7.63
2022-08-17T12:03:32.134Z,7.78
2022-08-17T12:06:30.501Z,8.43
2022-08-17T12:09:20.956Z,7.85
2022-08-17T12:12:12.465Z,8.05
2022-08-17T12:15:08.899Z,7.40
2022-08-17T12:17:40.140Z,7.63
2022-08-17T12:20:21.415Z,7.47
2022-08-17T12:23:12.317Z,7.65
2022-08-17T12:25:51.689Z,7.18
2022-08-17T12:28:24.766Z,6.45
2022-08-17T12:30:52.328Z,6.43
2022-08-17T12:33:25.368Z,7.47
2022-08-17T12:36:05.862Z,7.53
2022-08-17T12:38:36.136Z,7.55
2022-08-17T12:41:24.801Z,8.70
2022-08-17T12:44:02.714Z,9.35
2022-08-17T12:46:44.687Z,8.82
2022-08-17T12:49:23.321Z,8.25
2022-08-17T12:51:52.776Z,8.88
2022-08-17T12:54:29.198Z,8.05
2022-08-17T12:56:56.984Z,9.60
2022-08-17T12:59:30.429Z,6.35
2022-08-17T13:01:57.959Z,7.82
2022-08-17T13:04:26.514Z,7.65
2022-08-17T13:06:59.612Z,7.47
2022-08-17T13:09:35.917Z,7.25
2022-08-17T13:12:07.505Z,7.22
2022-08-17T13:14:35.397Z,7.00
2022-08-17T13:17:09.665Z,7.13
2022-08-17T13:19:49.493Z,7.72
2022-08-17T13:22:18.299Z,7.40
2022-08-17T13:24:57.999Z,7.40
2022-08-17T13:27:27.733Z,7.47
2022-08-17T13:30:02.130Z,8.38
2022-08-17T13:32:33.629Z,7.05
2022-08-17T13:35:14.454Z,6.95
2022-08-17T13:37:57.839Z,6.82
2022-08-17T13:40:41.805Z,6.35
2022-08-17T13:43:10.200Z,6.07
2022-08-17T13:45:50.831Z,6.03
2022-08-17T13:48:27.703Z,6.25
2022-08-17T13:50:57.525Z,6.20
2022-08-17T13:53:35.434Z,5.38
2022-08-17T13:56:37.000Z,6.13
2022-08-17T13:59:00.782Z,7.18
2022-08-17T14:01:32.546Z,11.70
2022-08-17T14:04:02.356Z,11.05
2022-08-17T14:06:52.557Z,10.50
2022-08-17T14:09:25.578Z,10.38
2022-08-17T14:11:54.832Z,11.13
2022-08-17T14:16:51.234Z,11.50
2022-08-17T14:19:18.120Z,11.07
2022-08-17T14:21:46.587Z,13.52
2022-08-17T14:24:27.469Z,15.93
2022-08-17T14:26:54.519Z,14.00
2022-08-17T14:29:23.261Z,13.90
2022-08-17T14:31:54.334Z,15.70
2022-08-17T14:34:21.664Z,15.57
2022-08-17T14:36:48.867Z,17.40
2022-08-17T14:39:16.742Z,16.63
2022-08-17T14:41:43.987Z,15.85
2022-08-17T14:44:12.437Z,18.48
2022-08-17T14:46:40.828Z,14.10
2022-08-17T14:49:10.189Z,15.65
2022-08-17T14:51:43.572Z,16.08
2022-08-17T14:54:32.867Z,16.98
2022-08-17T14:57:17.688Z,16.27
2022-08-17T14:59:47.190Z,15.82
2022-08-17T15:02:14.969Z,15.75
2022-08-17T15:04:45.488Z,16.65
2022-08-17T15:07:12.562Z,16.08
2022-08-17T15:09:39.330Z,14.65
2022-08-17T15:12:06.844Z,13.75
2022-08-17T15:14:35.352Z,13.70
2022-08-17T15:17:03.698Z,14.37
2022-08-17T15:19:30.422Z,14.30
2022-08-17T15:21:58.111Z,14.65
2022-08-17T15:24:24.795Z,15.07
2022-08-17T15:26:51.495Z,14.82
2022-08-17T15:29:18.367Z,14.68
2022-08-17T15:31:45.054Z,14.02
2022-08-17T15:34:11.876Z,12.70
2022-08-17T15:36:40.651Z,12.45
2022-08-17T15:39:19.200Z,14.13
2022-08-17T15:41:47.307Z,13.98
2022-08-17T15:44:32.412Z,13.33
2022-08-17T15:47:02.065Z,13.70
2022-08-17T15:49:28.740Z,14.40
2022-08-17T15:51:55.628Z,13.07
2022-08-17T15:54:23.397Z,14.73
2022-08-17T15:56:50.482Z,13.95
2022-08-17T15:59:19.330Z,16.27
2022-08-17T16:03:01.470Z,17.00
2022-08-17T16:04:32.851Z,17.55
2022-08-17T16:07:00.094Z,16.02
2022-08-17T16:09:27.478Z,16.52
2022-08-17T16:11:55.889Z,16.77
2022-08-17T16:14:24.645Z,17.15
2022-08-17T16:17:00.607Z,17.30
2022-08-17T16:19:27.336Z,16.30
2022-08-17T16:21:54.044Z,17.15
2022-08-17T16:24:20.707Z,16.92
2022-08-17T16:26:47.412Z,14.93
2022-08-17T16:29:14.086Z,14.75
2022-08-17T16:31:42.383Z,15.35
2022-08-17T16:34:17.925Z,14.10
2022-08-17T16:36:51.775Z,13.80
2022-08-17T16:39:25.191Z,14.43
2022-08-17T16:41:51.928Z,12.95
2022-08-17T16:44:21.326Z,14.52
2022-08-17T16:49:31.585Z,15.30
2022-08-17T16:52:03.925Z,15.02
2022-08-17T16:54:30.769Z,15.77
2022-08-17T16:56:57.482Z,15.77
2022-08-17T16:59:30.925Z,16.63
2022-08-17T17:02:10.918Z,16.55
2022-08-17T17:04:53.317Z,16.73
2022-08-17T17:07:49.700Z,17.77
2022-08-17T17:10:20.892Z,17.65
2022-08-17T17:13:03.931Z,19.88
2022-08-17T17:16:06.271Z,22.33
2022-08-17T17:18:41.145Z,25.10
2022-08-17T17:21:13.925Z,25.83
2022-08-17T17:23:59.922Z,25.25
2022-08-17T17:26:46.185Z,27.15
2022-08-17T17:29:47.763Z,24.58
2022-08-17T17:32:25.393Z,26.30
2022-08-17T17:35:01.492Z,24.40
2022-08-17T17:37:33.933Z,24.08
2022-08-17T17:40:09.483Z,25.48
2022-08-17T17:42:40.435Z,25.48
2022-08-17T17:45:37.468Z,25.73
2022-08-17T17:48:04.298Z,23.92
2022-08-17T17:50:41.489Z,23.48
2022-08-17T17:53:51.646Z,24.38
2022-08-17T17:56:43.661Z,23.85
2022-08-17T17:59:27.614Z,24.05
2022-08-17T18:02:13.372Z,25.50
2022-08-17T18:04:55.160Z,23.85
2022-08-17T18:07:37.441Z,24.70
2022-08-17T18:10:30.057Z,23.98
2022-08-17T18:13:36.337Z,24.25
2022-08-17T18:16:06.572Z,23.85
2022-08-17T18:18:37.698Z,24.35
2022-08-17T18:21:16.402Z,29.20
2022-08-17T18:23:57.264Z,25.52
2022-08-17T18:26:33.192Z,24.85
2022-08-17T18:29:01.185Z,25.00
2022-08-17T18:31:28.431Z,27.02
2022-08-17T18:34:45.826Z,25.15
2022-08-17T18:37:12.664Z,27.02
2022-08-17T18:39:43.017Z,27.95
2022-08-17T18:42:26.194Z,27.00
2022-08-17T18:44:55.345Z,28.17
2022-08-17T18:50:09.374Z,27.45
2022-08-17T18:52:37.941Z,27.90
2022-08-17T18:55:15.353Z,29.17
2022-08-17T18:57:45.605Z,27.40
2022-08-17T19:00:40.377Z,28.63
2022-08-17T19:03:16.586Z,29.25
2022-08-17T19:05:50.839Z,30.10
2022-08-17T19:08:23.710Z,29.90
2022-08-17T19:10:55.600Z,30.73
2022-08-17T19:13:44.636Z,29.25
2022-08-17T19:16:17.529Z,29.15
2022-08-17T19:18:52.664Z,30.38
2022-08-17T19:21:34.273Z,30.65
2022-08-17T19:24:19.274Z,30.67
2022-08-17T19:27:03.195Z,30.98
2022-08-17T19:29:48.177Z,31.52
2022-08-17T19:32:19.414Z,29.65
2022-08-17T19:34:46.491Z,28.30
2022-08-17T19:37:25.346Z,27.65
2022-08-17T19:40:07.662Z,26.67
2022-08-17T19:42:52.961Z,26.52
2022-08-17T19:45:33.033Z,27.10
2022-08-17T19:48:25.870Z,27.13
2022-08-17T19:51:03.719Z,26.95
2022-08-17T19:53:54.177Z,26.85
2022-08-17T19:56:38.299Z,26.95
2022-08-17T19:59:11.349Z,28.25
2022-08-17T20:02:01.207Z,26.63
2022-08-17T20:04:32.346Z,27.20
2022-08-17T20:07:08.040Z,27.65
2022-08-17T20:10:01.744Z,27.85
2022-08-17T20:12:36.040Z,28.15
2022-08-17T20:15:29.536Z,27.13
2022-08-17T20:17:59.941Z,28.17
2022-08-17T20:20:48.046Z,28.23
2022-08-17T20:23:17.900Z,29.42
2022-08-17T20:26:19.473Z,30.95
2022-08-17T20:29:07.757Z,32.28
2022-08-17T20:31:51.269Z,32.22
2022-08-17T20:34:33.622Z,30.77
2022-08-17T20:37:10.213Z,30.15
2022-08-17T20:39:49.529Z,32.17
2022-08-17T20:42:23.521Z,32.92
2022-08-17T20:45:21.641Z,30.42
2022-08-17T20:48:18.532Z,32.67
2022-08-17T20:50:46.899Z,32.80
2022-08-17T20:53:55.068Z,31.38
2022-08-17T20:56:43.817Z,31.30
2022-08-17T20:59:27.509Z,30.40
2022-08-17T21:02:12.433Z,30.05
2022-08-17T21:05:00.770Z,30.42
2022-08-17T21:07:43.629Z,30.33
2022-08-17T21:10:25.185Z,32.58
2022-08-17T21:13:15.425Z,33.03
2022-08-17T21:15:52.387Z,32.75
2022-08-17T21:18:44.554Z,33.33
2022-08-17T21:21:24.146Z,33.85
2022-08-17T21:24:27.690Z,34.22
2022-08-17T21:27:07.097Z,33.35
2022-08-17T21:32:09.635Z,33.92
2022-08-17T21:34:42.365Z,33.67
2022-08-17T21:37:23.409Z,34.85
2022-08-17T21:40:18.055Z,35.78
2022-08-17T21:42:48.746Z,34.47
2022-08-17T21:45:36.342Z,35.33
2022-08-17T21:48:16.070Z,37.22
2022-08-17T21:51:04.045Z,36.20
2022-08-17T21:53:44.531Z,35.67
2022-08-17T21:56:19.643Z,34.72
2022-08-17T21:58:54.378Z,37.17
2022-08-17T22:01:43.088Z,35.88
2022-08-17T22:04:13.051Z,36.63
2022-08-17T22:06:56.485Z,38.33
2022-08-17T22:09:32.881Z,36.60
2022-08-17T22:12:12.648Z,37.17
2022-08-17T22:14:52.888Z,39.83
2022-08-17T22:17:25.612Z,37.75
2022-08-17T22:20:17.324Z,36.80
2022-08-17T22:23:12.894Z,40.15
2022-08-17T22:25:57.409Z,40.85
2022-08-17T22:28:49.207Z,40.33
2022-08-17T22:31:27.962Z,40.80
2022-08-17T22:33:59.741Z,42.33
2022-08-17T22:36:30.210Z,41.17
2022-08-17T22:39:00.915Z,39.47
2022-08-17T22:41:36.774Z,44.33
2022-08-17T22:44:36.265Z,43.35
2022-08-17T22:50:00.073Z,44.65
2022-08-17T22:52:33.475Z,43.73
2022-08-17T22:55:34.021Z,42.85
2022-08-17T22:58:20.366Z,41.88
2022-08-17T23:00:49.411Z,43.45
2022-08-17T23:03:20.203Z,45.05
2022-08-17T23:06:03.392Z,48.13
2022-08-17T23:08:31.362Z,45.03
2022-08-17T23:11:00.270Z,47.72
2022-08-17T23:13:28.081Z,49.95
2022-08-17T23:15:54.803Z,48.63
2022-08-17T23:18:23.387Z,50.35
2022-08-17T23:20:50.285Z,52.15
2022-08-17T23:23:23.378Z,49.50
2022-08-17T23:25:50.925Z,47.40
2022-08-17T23:28:18.339Z,43.45
2022-08-17T23:30:48.252Z,45.13
2022-08-17T23:33:38.544Z,44.80
2022-08-17T23:36:08.723Z,41.63
2022-08-17T23:38:36.369Z,40.65
2022-08-17T23:41:11.692Z,44.05
2022-08-17T23:43:39.704Z,44.72
2022-08-17T23:46:07.186Z,44.10
2022-08-17T23:48:36.828Z,42.55
2022-08-17T23:51:09.007Z,44.53
2022-08-17T23:53:39.079Z,45.65
2022-08-17T23:56:10.259Z,48.65
2022-08-17T23:58:39.227Z,46.22
